Terminal Aerodrome Forecast
Issued by NWS Rapid City, SD

Home | Current Version | Previous Version | Graphics & Text | Print | Product List | Glossary On
Versions: 1 2 3 4 5 6 7 8 9 10 11 12
000
FTUS43 KUNR 260500
TAFRAP
TAF
KRAP 260528Z 2606/2706 35014KT P6SM OVC010
      TEMPO 2610/2614 3SM BR=

USA.gov is the U.S. government's official web portal to all federal, state and local government web resources and services.